Time;durP1;ratioP1;P1;durP2;ratioP2;P2;SDS_P1;SDS_P2;PMS_P1;PMS_P2;Temp;Humidity;BMP_temperature;BMP_pressure;BME280_temperature;BME280_humidity;BME280_pressure;Samples;Min_cycle;Max_cycle;Signal;HPM_P1;HPM_P2
2022/11/14 00:02:24;;;;;;;47.67;21.23;;;;;;;;;;5000708;28;20038;-79
2022/11/14 00:04:56;;;;;;;48.65;22.90;;;;;;;;;;4983680;28;20053;-79
2022/11/14 00:07:25;;;;;;;48.20;20.73;;;;;;;;;;4996867;28;20138;-79
2022/11/14 00:10:09;;;;;;;46.65;20.13;;;;;;;;;;5004584;28;20053;-79
2022/11/14 00:12:35;;;;;;;54.25;23.42;;;;;;;;;;4984941;28;20038;-79
2022/11/14 00:15:24;;;;;;;49.03;22.90;;;;;;;;;;5017383;28;20100;-79
2022/11/14 00:17:55;;;;;;;52.13;24.00;;;;;;;;;;4991711;28;20061;-79
2022/11/14 00:20:23;;;;;;;44.42;20.67;;;;;;;;;;4984960;28;20050;-79
2022/11/14 00:22:49;;;;;;;47.60;21.10;;;;;;;;;;5000045;28;20460;-79
2022/11/14 00:25:19;;;;;;;46.55;20.40;;;;;;;;;;4984209;28;20053;-79
2022/11/14 00:28:08;;;;;;;43.10;20.55;;;;;;;;;;5012139;28;20060;-79
2022/11/14 00:30:40;;;;;;;44.50;21.02;;;;;;;;;;5019656;28;20046;-79
2022/11/14 00:33:23;;;;;;;35.13;18.23;;;;;;;;;;4998896;28;20057;-79
2022/11/14 00:35:59;;;;;;;36.67;17.65;;;;;;;;;;4984975;28;20052;-79
2022/11/14 00:38:28;;;;;;;31.92;15.90;;;;;;;;;;4992679;28;20558;-79
2022/11/14 00:40:54;;;;;;;37.63;18.55;;;;;;;;;;5003414;28;20060;-79
2022/11/14 00:43:34;;;;;;;37.67;18.20;;;;;;;;;;4980504;28;20058;-79
2022/11/14 00:46:00;;;;;;;33.00;16.95;;;;;;;;;;4961021;28;20051;-79
2022/11/14 00:48:29;;;;;;;32.53;16.10;;;;;;;;;;4961132;28;20094;-79
2022/11/14 00:50:58;;;;;;;32.38;17.67;;;;;;;;;;4961187;28;20110;-79
2022/11/14 00:53:29;;;;;;;32.63;15.27;;;;;;;;;;4960796;28;20045;-79
2022/11/14 00:55:58;;;;;;;33.72;16.33;;;;;;;;;;4958906;28;20054;-79
2022/11/14 00:58:43;;;;;;;;;;;;;;;;;;;;;
2022/11/14 01:01:14;;;;;;;32.35;16.75;;;;;;;;;;4986376;28;20137;-79
2022/11/14 01:03:49;;;;;;;32.40;15.82;;;;;;;;;;4960345;28;20572;-79
2022/11/14 01:06:24;;;;;;;31.70;15.65;;;;;;;;;;4960248;28;20537;-79
2022/11/14 01:08:55;;;;;;;27.33;15.75;;;;;;;;;;4960419;28;20093;-79
2022/11/14 01:11:32;;;;;;;29.35;17.15;;;;;;;;;;4960424;28;20078;-79
2022/11/14 01:14:11;;;;;;;35.40;16.83;;;;;;;;;;4956463;28;20050;-79
2022/11/14 01:16:48;;;;;;;32.33;16.27;;;;;;;;;;4971025;28;20046;-79
2022/11/14 01:19:20;;;;;;;33.92;16.77;;;;;;;;;;4959911;28;20084;-79
2022/11/14 01:21:48;;;;;;;31.02;16.73;;;;;;;;;;4996494;28;20053;-79
2022/11/14 01:24:26;;;;;;;32.35;16.35;;;;;;;;;;4999615;28;20407;-78
2022/11/14 01:26:56;;;;;;;31.98;16.45;;;;;;;;;;5034089;28;20041;-79
2022/11/14 01:29:29;;;;;;;32.33;16.55;;;;;;;;;;4999944;28;20057;-79
2022/11/14 01:32:06;;;;;;;30.67;15.85;;;;;;;;;;4999374;28;20424;-79
2022/11/14 01:34:35;;;;;;;33.33;16.88;;;;;;;;;;4979764;28;20518;-78
2022/11/14 01:37:04;;;;;;;29.63;16.05;;;;;;;;;;4996133;28;20041;-78
2022/11/14 01:39:36;;;;;;;29.10;16.55;;;;;;;;;;4996929;28;20100;-78
2022/11/14 01:42:05;;;;;;;30.15;16.90;;;;;;;;;;5013357;28;20465;-78
2022/11/14 01:45:00;;;;;;;33.63;17.52;;;;;;;;;;4997414;28;20384;-79
2022/11/14 01:47:31;;;;;;;35.58;17.98;;;;;;;;;;5016311;28;20450;-78
2022/11/14 01:50:05;;;;;;;32.72;17.88;;;;;;;;;;4999883;28;20042;-79
2022/11/14 01:52:36;;;;;;;34.08;18.88;;;;;;;;;;4980608;28;20046;-79
2022/11/14 01:55:06;;;;;;;32.17;17.35;;;;;;;;;;4980887;28;20045;-79
2022/11/14 01:57:44;;;;;;;37.60;19.30;;;;;;;;;;4980618;28;20050;-78
2022/11/14 02:00:18;;;;;;;36.53;18.08;;;;;;;;;;4979484;28;20058;-79
2022/11/14 02:02:50;;;;;;;37.65;19.40;;;;;;;;;;5005599;28;20052;-79
2022/11/14 02:05:19;;;;;;;38.15;18.85;;;;;;;;;;4999985;28;20042;-79
2022/11/14 02:07:46;;;;;;;37.35;19.92;;;;;;;;;;4987912;28;20054;-79
2022/11/14 02:10:19;;;;;;;37.15;20.10;;;;;;;;;;4983418;28;20079;-79
2022/11/14 02:12:48;;;;;;;40.05;19.77;;;;;;;;;;5000036;28;20074;-79
2022/11/14 02:15:23;;;;;;;41.60;21.50;;;;;;;;;;4983637;28;20100;-79
2022/11/14 02:17:49;;;;;;;41.40;21.63;;;;;;;;;;4999864;28;20065;-79
2022/11/14 02:20:31;;;;;;;40.03;22.20;;;;;;;;;;4963937;28;20484;-78
2022/11/14 02:23:01;;;;;;;42.95;22.27;;;;;;;;;;4963977;28;20480;-79
2022/11/14 02:25:33;;;;;;;42.17;23.00;;;;;;;;;;4980072;28;20452;-79
2022/11/14 02:28:00;;;;;;;43.88;21.88;;;;;;;;;;4996041;28;20042;-79
2022/11/14 02:30:35;;;;;;;46.20;23.58;;;;;;;;;;5005986;28;20047;-79
2022/11/14 02:33:04;;;;;;;44.38;24.70;;;;;;;;;;4979721;28;20045;-79
2022/11/14 02:35:38;;;;;;;46.80;24.83;;;;;;;;;;4996297;28;20401;-79
2022/11/14 02:38:12;;;;;;;48.30;24.98;;;;;;;;;;4996550;28;20043;-79
2022/11/14 02:40:47;;;;;;;44.63;24.35;;;;;;;;;;4979707;28;20046;-79
2022/11/14 02:43:23;;;;;;;46.37;25.10;;;;;;;;;;4979405;28;20050;-79
2022/11/14 02:45:50;;;;;;;50.08;25.48;;;;;;;;;;4979742;28;20053;-79
2022/11/14 02:48:19;;;;;;;47.58;24.58;;;;;;;;;;4965624;28;20046;-79
2022/11/14 02:50:53;;;;;;;51.10;25.95;;;;;;;;;;4992984;28;20049;-78
2022/11/14 02:53:19;;;;;;;50.90;26.55;;;;;;;;;;4963590;28;20050;-79
2022/11/14 02:55:47;;;;;;;49.90;26.60;;;;;;;;;;4963992;28;20505;-79
2022/11/14 02:58:13;;;;;;;53.63;28.35;;;;;;;;;;4962936;28;20046;-79
2022/11/14 03:00:40;;;;;;;53.33;28.20;;;;;;;;;;4979382;28;20081;-79
2022/11/14 03:03:17;;;;;;;55.60;28.40;;;;;;;;;;4963850;28;20046;-79
2022/11/14 03:05:44;;;;;;;52.22;26.77;;;;;;;;;;5009949;28;20050;-78
2022/11/14 03:08:10;;;;;;;50.58;26.65;;;;;;;;;;5000359;28;20049;-78
2022/11/14 03:10:39;;;;;;;51.75;26.67;;;;;;;;;;5018141;28;20050;-79
2022/11/14 03:13:08;;;;;;;54.92;27.33;;;;;;;;;;5018257;28;20513;-79
2022/11/14 03:15:36;;;;;;;47.17;26.48;;;;;;;;;;5018155;28;20049;-78
2022/11/14 03:18:02;;;;;;;51.80;27.48;;;;;;;;;;5000501;28;20049;-79
2022/11/14 03:20:38;;;;;;;48.95;26.55;;;;;;;;;;4988741;28;20108;-79
2022/11/14 03:23:11;;;;;;;50.85;26.42;;;;;;;;;;4975351;28;20736;-79
2022/11/14 03:25:43;;;;;;;55.42;28.13;;;;;;;;;;5015852;28;20397;-79
2022/11/14 03:28:09;;;;;;;52.17;28.15;;;;;;;;;;4981829;28;20048;-79
2022/11/14 03:30:38;;;;;;;57.80;28.00;;;;;;;;;;4997466;28;20475;-79
2022/11/14 03:33:14;;;;;;;;;;;;;;;;;;;;;
2022/11/14 03:35:44;;;;;;;55.90;28.88;;;;;;;;;;4999493;28;20050;-78
2022/11/14 03:38:12;;;;;;;58.88;29.15;;;;;;;;;;5016562;28;20081;-78
2022/11/14 03:40:52;;;;;;;55.88;28.27;;;;;;;;;;4998088;28;20048;-79
2022/11/14 03:43:21;;;;;;;60.60;28.83;;;;;;;;;;4982529;28;20046;-79
2022/11/14 03:45:50;;;;;;;61.90;30.38;;;;;;;;;;4982373;28;20439;-79
2022/11/14 03:48:16;;;;;;;56.20;28.63;;;;;;;;;;4997740;28;20575;-79
2022/11/14 03:50:43;;;;;;;57.50;29.85;;;;;;;;;;4981738;28;20052;-79
2022/11/14 03:53:17;;;;;;;54.75;29.00;;;;;;;;;;5015486;28;20081;-79
2022/11/14 03:55:48;;;;;;;62.95;31.95;;;;;;;;;;5013870;28;20049;-79
2022/11/14 03:58:14;;;;;;;60.67;30.65;;;;;;;;;;4993735;28;20048;-78
2022/11/14 04:00:40;;;;;;;60.10;31.05;;;;;;;;;;5017658;28;20046;-79
2022/11/14 04:03:07;;;;;;;60.03;30.88;;;;;;;;;;5017253;28;20056;-79
2022/11/14 04:05:39;;;;;;;59.90;31.10;;;;;;;;;;5000881;28;20041;-79
2022/11/14 04:08:10;;;;;;;58.75;30.08;;;;;;;;;;4996911;28;20054;-79
2022/11/14 04:10:36;;;;;;;61.80;31.02;;;;;;;;;;4997667;28;20560;-79
2022/11/14 04:13:12;;;;;;;60.33;30.27;;;;;;;;;;4981041;28;20381;-79
2022/11/14 04:15:44;;;;;;;62.13;31.67;;;;;;;;;;4998262;28;20065;-79
2022/11/14 04:18:17;;;;;;;59.67;31.08;;;;;;;;;;4997216;28;20503;-79
2022/11/14 04:20:46;;;;;;;61.22;32.17;;;;;;;;;;4997042;28;20515;-79
2022/11/14 04:23:15;;;;;;;63.72;32.83;;;;;;;;;;4997188;28;20554;-78
2022/11/14 04:25:43;;;;;;;63.95;30.90;;;;;;;;;;5024729;28;20041;-78
2022/11/14 04:28:09;;;;;;;60.03;29.77;;;;;;;;;;5016621;28;20045;-78
2022/11/14 04:30:35;;;;;;;55.65;28.42;;;;;;;;;;5016476;28;20045;-78
2022/11/14 04:33:08;;;;;;;59.30;30.02;;;;;;;;;;5000462;28;20385;-78
2022/11/14 04:35:35;;;;;;;64.68;31.20;;;;;;;;;;5017345;28;20049;-78
2022/11/14 04:38:04;;;;;;;56.33;30.27;;;;;;;;;;5017018;28;20073;-78
2022/11/14 04:40:32;;;;;;;59.58;30.30;;;;;;;;;;4989995;28;20074;-78
2022/11/14 04:43:01;;;;;;;54.35;29.13;;;;;;;;;;4980849;28;20137;-78
2022/11/14 04:45:27;;;;;;;53.15;26.67;;;;;;;;;;4981090;28;20392;-78
2022/11/14 04:47:54;;;;;;;56.35;30.98;;;;;;;;;;4981236;28;20049;-78
2022/11/14 04:50:28;;;;;;;53.00;29.25;;;;;;;;;;4997779;28;20129;-78
2022/11/14 04:52:54;;;;;;;54.70;28.95;;;;;;;;;;4996680;28;20500;-78
2022/11/14 04:55:20;;;;;;;53.85;28.52;;;;;;;;;;4996435;28;20587;-78
2022/11/14 04:57:53;;;;;;;48.63;26.95;;;;;;;;;;4997283;28;20121;-78
2022/11/14 05:00:19;;;;;;;52.33;27.58;;;;;;;;;;4985385;28;20507;-78
2022/11/14 05:02:52;;;;;;;49.95;26.27;;;;;;;;;;4989003;28;20053;-78
2022/11/14 05:05:24;;;;;;;49.35;25.60;;;;;;;;;;4981834;28;20046;-78
2022/11/14 05:07:58;;;;;;;48.83;26.30;;;;;;;;;;4980486;28;20054;-78
2022/11/14 05:10:26;;;;;;;52.78;27.45;;;;;;;;;;4996793;28;20127;-78
2022/11/14 05:12:55;;;;;;;48.53;25.92;;;;;;;;;;5013801;28;20147;-79
2022/11/14 05:15:22;;;;;;;49.90;25.65;;;;;;;;;;4995973;28;20496;-78
2022/11/14 05:17:48;;;;;;;51.42;27.27;;;;;;;;;;5009848;28;20097;-78
2022/11/14 05:20:14;;;;;;;50.55;25.73;;;;;;;;;;5015189;28;20132;-78
2022/11/14 05:22:40;;;;;;;53.45;26.88;;;;;;;;;;5033850;28;20041;-78
2022/11/14 05:25:09;;;;;;;51.75;27.70;;;;;;;;;;5015827;28;20063;-78
2022/11/14 05:27:36;;;;;;;55.53;26.63;;;;;;;;;;5016412;28;20068;-78
2022/11/14 05:30:02;;;;;;;53.15;26.85;;;;;;;;;;5015333;28;20461;-78
2022/11/14 05:32:28;;;;;;;51.55;26.15;;;;;;;;;;4984437;28;20049;-78
2022/11/14 05:34:54;;;;;;;50.53;27.27;;;;;;;;;;4996268;28;20381;-78
2022/11/14 05:37:20;;;;;;;49.85;24.83;;;;;;;;;;4980080;28;20136;-78
2022/11/14 05:39:47;;;;;;;51.72;27.58;;;;;;;;;;5013602;28;20071;-78
2022/11/14 05:42:15;;;;;;;53.17;28.02;;;;;;;;;;4985918;28;20050;-78
2022/11/14 05:44:44;;;;;;;51.70;26.38;;;;;;;;;;5002957;28;20057;-78
2022/11/14 05:47:10;;;;;;;51.28;27.27;;;;;;;;;;5016795;28;20360;-78
2022/11/14 05:49:39;;;;;;;48.22;25.17;;;;;;;;;;5022077;28;20478;-78
2022/11/14 05:52:07;;;;;;;51.58;24.40;;;;;;;;;;5005735;28;20053;-78
2022/11/14 05:54:34;;;;;;;47.75;25.85;;;;;;;;;;5005632;28;20491;-78
2022/11/14 05:57:06;;;;;;;50.30;25.98;;;;;;;;;;5022061;28;20099;-78
2022/11/14 05:59:32;;;;;;;46.03;23.83;;;;;;;;;;5005991;28;20037;-78
2022/11/14 06:02:01;;;;;;;47.58;25.08;;;;;;;;;;5018089;28;20513;-79
2022/11/14 06:04:27;;;;;;;48.78;27.00;;;;;;;;;;5010429;28;20045;-79
2022/11/14 06:06:56;;;;;;;49.85;24.45;;;;;;;;;;5009767;28;20057;-79
2022/11/14 06:09:22;;;;;;;51.90;26.55;;;;;;;;;;5026274;28;20045;-79
2022/11/14 06:11:51;;;;;;;50.65;27.23;;;;;;;;;;5006441;28;20476;-79
2022/11/14 06:14:17;;;;;;;50.97;27.20;;;;;;;;;;5006981;28;20064;-79
2022/11/14 06:16:46;;;;;;;49.78;25.80;;;;;;;;;;5020151;28;20045;-79
2022/11/14 06:19:12;;;;;;;52.92;27.67;;;;;;;;;;5026478;28;20064;-79
2022/11/14 06:21:39;;;;;;;49.10;26.40;;;;;;;;;;5027069;28;20045;-79
2022/11/14 06:24:05;;;;;;;50.85;26.83;;;;;;;;;;5025942;28;20041;-79
2022/11/14 06:26:31;;;;;;;51.83;27.10;;;;;;;;;;5026483;28;20045;-79
2022/11/14 06:28:58;;;;;;;53.72;26.73;;;;;;;;;;5010058;28;20396;-79
2022/11/14 06:31:28;;;;;;;50.35;24.58;;;;;;;;;;5013771;28;20048;-79
2022/11/14 06:33:55;;;;;;;50.45;26.17;;;;;;;;;;4989427;28;20392;-79
2022/11/14 06:36:22;;;;;;;54.38;28.23;;;;;;;;;;4987822;28;20474;-79
2022/11/14 06:38:48;;;;;;;47.47;24.63;;;;;;;;;;5021457;28;20050;-79
2022/11/14 06:41:18;;;;;;;51.03;27.10;;;;;;;;;;5003948;28;20041;-79
2022/11/14 06:43:45;;;;;;;56.25;28.38;;;;;;;;;;4987877;28;20041;-79
2022/11/14 06:46:15;;;;;;;52.88;28.23;;;;;;;;;;5010692;28;20045;-79
2022/11/14 06:48:42;;;;;;;51.83;27.67;;;;;;;;;;4986923;28;20038;-79
2022/11/14 06:51:10;;;;;;;50.83;25.92;;;;;;;;;;5003442;28;20045;-79
2022/11/14 06:53:36;;;;;;;51.30;26.92;;;;;;;;;;5017973;28;20388;-79
2022/11/14 06:56:04;;;;;;;53.90;27.10;;;;;;;;;;4983977;28;20053;-79
2022/11/14 06:58:31;;;;;;;53.65;27.58;;;;;;;;;;4983849;28;20049;-80
2022/11/14 07:01:02;;;;;;;52.97;27.50;;;;;;;;;;4984549;28;20057;-78
2022/11/14 07:03:28;;;;;;;54.00;27.33;;;;;;;;;;5017350;28;20550;-79
2022/11/14 07:05:57;;;;;;;51.47;25.65;;;;;;;;;;5019237;28;20045;-79
2022/11/14 07:08:23;;;;;;;49.38;25.90;;;;;;;;;;5003368;28;20053;-78
2022/11/14 07:10:49;;;;;;;47.60;24.08;;;;;;;;;;5019884;28;20075;-78
2022/11/14 07:13:15;;;;;;;55.53;28.38;;;;;;;;;;5003799;28;20089;-78
2022/11/14 07:15:49;;;;;;;53.03;27.10;;;;;;;;;;5003097;28;20137;-78
2022/11/14 07:18:15;;;;;;;56.03;27.77;;;;;;;;;;5019353;28;20045;-78
2022/11/14 07:20:41;;;;;;;55.35;28.67;;;;;;;;;;5003088;28;20053;-78
2022/11/14 07:23:07;;;;;;;55.58;28.10;;;;;;;;;;5037186;28;20048;-78
2022/11/14 07:25:33;;;;;;;52.72;27.27;;;;;;;;;;5037066;28;20072;-78
2022/11/14 07:27:59;;;;;;;53.75;28.10;;;;;;;;;;5020032;28;20052;-79
2022/11/14 07:30:26;;;;;;;55.25;29.17;;;;;;;;;;5037106;28;20034;-79
2022/11/14 07:33:10;;;;;;;53.35;27.60;;;;;;;;;;5020909;28;20046;-79
2022/11/14 07:35:45;;;;;;;57.90;27.90;;;;;;;;;;5020216;28;20435;-78
2022/11/14 07:38:11;;;;;;;54.95;28.05;;;;;;;;;;5036894;28;20124;-79
2022/11/14 07:40:37;;;;;;;51.15;27.77;;;;;;;;;;5002993;28;20100;-78
2022/11/14 07:43:03;;;;;;;54.75;27.35;;;;;;;;;;5018814;28;20045;-78
2022/11/14 07:45:30;;;;;;;51.70;26.05;;;;;;;;;;5027480;28;20046;-78
2022/11/14 07:47:57;;;;;;;53.75;26.45;;;;;;;;;;4984305;28;20046;-78
2022/11/14 07:50:24;;;;;;;53.22;27.83;;;;;;;;;;4999849;28;20096;-78
2022/11/14 07:52:52;;;;;;;51.22;25.98;;;;;;;;;;5011951;28;20041;-79
2022/11/14 07:55:19;;;;;;;47.58;24.70;;;;;;;;;;5018336;28;20129;-78
2022/11/14 07:57:46;;;;;;;50.03;26.88;;;;;;;;;;5035521;28;20072;-78
2022/11/14 08:00:13;;;;;;;51.63;26.50;;;;;;;;;;5034374;28;20124;-79
2022/11/14 08:02:39;;;;;;;49.60;25.85;;;;;;;;;;5001543;28;20090;-78
2022/11/14 08:05:05;;;;;;;51.55;27.40;;;;;;;;;;5000976;28;20045;-78
2022/11/14 08:07:31;;;;;;;54.03;27.98;;;;;;;;;;5016826;28;20053;-78
2022/11/14 08:09:57;;;;;;;52.83;27.23;;;;;;;;;;5028656;28;20057;-78
2022/11/14 08:12:23;;;;;;;52.55;26.92;;;;;;;;;;4998743;28;20046;-78
2022/11/14 08:14:50;;;;;;;51.90;26.27;;;;;;;;;;4985501;28;20468;-78
2022/11/14 08:17:16;;;;;;;51.80;26.58;;;;;;;;;;5002584;28;20045;-79
2022/11/14 08:19:42;;;;;;;58.33;28.10;;;;;;;;;;5016416;28;20420;-78
2022/11/14 08:22:11;;;;;;;57.20;28.73;;;;;;;;;;4982336;28;20506;-79
2022/11/14 08:24:37;;;;;;;56.42;28.52;;;;;;;;;;5031826;28;20037;-79
2022/11/14 08:27:03;;;;;;;50.65;26.13;;;;;;;;;;5002729;28;20052;-79
2022/11/14 08:29:29;;;;;;;55.08;28.77;;;;;;;;;;5018938;28;20384;-78
2022/11/14 08:31:58;;;;;;;52.88;27.33;;;;;;;;;;5020972;28;20102;-79
2022/11/14 08:34:35;;;;;;;50.70;27.30;;;;;;;;;;4999081;28;20129;-79
2022/11/14 08:37:07;;;;;;;58.75;28.58;;;;;;;;;;4998411;28;20157;-79
2022/11/14 08:39:34;;;;;;;53.42;27.75;;;;;;;;;;5036601;28;20052;-79
2022/11/14 08:42:00;;;;;;;52.47;25.90;;;;;;;;;;5019821;28;20045;-79
2022/11/14 08:44:26;;;;;;;50.20;26.67;;;;;;;;;;5003619;28;20068;-79
2022/11/14 08:47:02;;;;;;;57.88;28.50;;;;;;;;;;5003640;28;20364;-78
2022/11/14 08:49:30;;;;;;;54.63;27.20;;;;;;;;;;5019193;28;20041;-78
2022/11/14 08:51:56;;;;;;;56.47;28.70;;;;;;;;;;5001323;28;20065;-78
2022/11/14 08:54:22;;;;;;;53.25;25.40;;;;;;;;;;5034900;28;20340;-78
2022/11/14 08:56:49;;;;;;;55.90;28.95;;;;;;;;;;5025833;28;20054;-78
2022/11/14 08:59:15;;;;;;;54.45;27.33;;;;;;;;;;5012718;28;20046;-78
2022/11/14 09:01:41;;;;;;;55.38;28.52;;;;;;;;;;5016851;28;20054;-78
2022/11/14 09:04:07;;;;;;;50.50;25.35;;;;;;;;;;5016950;28;20067;-78
2022/11/14 09:06:36;;;;;;;51.97;27.42;;;;;;;;;;5014390;28;20045;-78
2022/11/14 09:09:02;;;;;;;54.22;26.75;;;;;;;;;;5005459;28;20053;-78
2022/11/14 09:11:28;;;;;;;54.38;26.90;;;;;;;;;;4997460;28;20046;-79
2022/11/14 09:14:01;;;;;;;53.75;26.92;;;;;;;;;;5035082;28;20041;-81
2022/11/14 09:16:27;;;;;;;50.75;26.15;;;;;;;;;;5024486;28;20046;-79
2022/11/14 09:18:53;;;;;;;48.08;24.48;;;;;;;;;;4980276;28;20449;-78
2022/11/14 09:21:20;;;;;;;51.47;26.50;;;;;;;;;;5014236;28;20042;-79
2022/11/14 09:23:47;;;;;;;49.85;25.45;;;;;;;;;;5006347;28;20053;-79
2022/11/14 09:26:13;;;;;;;48.45;26.23;;;;;;;;;;5015779;28;20044;-78
2022/11/14 09:28:39;;;;;;;48.90;25.02;;;;;;;;;;5016316;28;20529;-79
2022/11/14 09:31:09;;;;;;;49.50;27.15;;;;;;;;;;5003878;28;20054;-78
2022/11/14 09:33:35;;;;;;;53.17;26.50;;;;;;;;;;5024072;28;20072;-79
2022/11/14 09:36:05;;;;;;;53.90;25.35;;;;;;;;;;5004853;28;20042;-78
2022/11/14 09:38:31;;;;;;;50.25;26.63;;;;;;;;;;5032101;28;20045;-78
2022/11/14 09:41:22;;;;;;;47.97;25.77;;;;;;;;;;5009274;28;20116;-78
2022/11/14 09:44:06;;;;;;;49.60;27.83;;;;;;;;;;4988353;28;20046;-79
2022/11/14 09:46:39;;;;;;;51.67;25.85;;;;;;;;;;5002601;28;20041;-78
2022/11/14 09:49:17;;;;;;;51.83;27.67;;;;;;;;;;5022254;28;20439;-79
2022/11/14 09:51:48;;;;;;;53.50;27.08;;;;;;;;;;5000031;28;20059;-77
2022/11/14 09:54:17;;;;;;;49.22;27.27;;;;;;;;;;5033345;28;20045;-78
2022/11/14 09:56:43;;;;;;;45.95;23.73;;;;;;;;;;5034603;28;20037;-78
2022/11/14 09:59:13;;;;;;;49.38;25.77;;;;;;;;;;5016269;28;20052;-77
2022/11/14 10:01:42;;;;;;;49.95;26.33;;;;;;;;;;5034613;28;20087;-79
2022/11/14 10:04:14;;;;;;;48.78;26.70;;;;;;;;;;5034239;28;20145;-79
2022/11/14 10:06:46;;;;;;;47.75;26.05;;;;;;;;;;5030597;28;20415;-82
2022/11/14 10:09:29;;;;;;;48.60;25.48;;;;;;;;;;5014416;28;20046;-79
2022/11/14 10:12:01;;;;;;;48.30;25.30;;;;;;;;;;5006480;28;20046;-82
2022/11/14 10:14:28;;;;;;;49.85;27.20;;;;;;;;;;5016835;28;20428;-85
2022/11/14 10:17:05;;;;;;;51.03;28.15;;;;;;;;;;5016836;28;20073;-79
2022/11/14 10:19:37;;;;;;;43.67;22.00;;;;;;;;;;5013593;28;20042;-82
2022/11/14 10:22:22;;;;;;;46.92;24.05;;;;;;;;;;5009069;28;20093;-81
2022/11/14 10:25:03;;;;;;;43.67;24.83;;;;;;;;;;5004187;28;20128;-79
2022/11/14 10:27:37;;;;;;;49.17;25.42;;;;;;;;;;4995343;28;20056;-81
2022/11/14 10:30:08;;;;;;;46.88;24.13;;;;;;;;;;5021360;28;20057;-79
2022/11/14 10:32:37;;;;;;;46.05;25.88;;;;;;;;;;4987434;28;20050;-78
2022/11/14 10:35:11;;;;;;;48.10;26.08;;;;;;;;;;5001626;28;20098;-80
2022/11/14 10:37:43;;;;;;;46.58;24.45;;;;;;;;;;5000355;28;20069;-79
2022/11/14 10:40:18;;;;;;;48.80;26.65;;;;;;;;;;4981417;28;20389;-78
2022/11/14 10:42:46;;;;;;;46.05;24.75;;;;;;;;;;5009422;28;20049;-78
2022/11/14 10:45:21;;;;;;;47.20;25.05;;;;;;;;;;5015001;28;20069;-79
2022/11/14 10:48:03;;;;;;;44.53;24.20;;;;;;;;;;5017492;28;20550;-79
2022/11/14 10:50:36;;;;;;;47.70;26.25;;;;;;;;;;5004827;28;20553;-79
2022/11/14 10:53:04;;;;;;;44.92;25.90;;;;;;;;;;5016528;28;20125;-78
2022/11/14 10:55:30;;;;;;;45.00;23.85;;;;;;;;;;5016572;28;20084;-78
2022/11/14 10:57:56;;;;;;;50.63;27.35;;;;;;;;;;5016313;28;20457;-78
2022/11/14 11:00:23;;;;;;;46.85;25.52;;;;;;;;;;4994019;28;20039;-78
2022/11/14 11:02:54;;;;;;;48.10;26.45;;;;;;;;;;5007787;28;20048;-78
2022/11/14 11:05:22;;;;;;;48.47;26.70;;;;;;;;;;5016726;28;20076;-78
2022/11/14 11:13:33;;;;;;;43.95;25.25;;;;;;;;;;5016800;28;20053;-78
2022/11/14 11:16:00;;;;;;;45.40;25.35;;;;;;;;;;5016605;28;20096;-78
2022/11/14 11:18:33;;;;;;;46.80;26.90;;;;;;;;;;5016174;28;20125;-78
2022/11/14 11:21:08;;;;;;;42.30;23.73;;;;;;;;;;5032427;28;20129;-78
2022/11/14 11:23:35;;;;;;;45.23;25.27;;;;;;;;;;5017980;28;20530;-78
2022/11/14 11:26:04;;;;;;;41.70;23.58;;;;;;;;;;5036088;28;20398;-78
2022/11/14 11:28:31;;;;;;;42.90;23.95;;;;;;;;;;5035487;28;20426;-78
2022/11/14 11:30:57;;;;;;;48.75;25.35;;;;;;;;;;5040676;28;20052;-78
2022/11/14 11:33:25;;;;;;;41.20;24.20;;;;;;;;;;5041328;28;20088;-79
2022/11/14 11:35:54;;;;;;;40.88;24.48;;;;;;;;;;5002959;28;20134;-78
2022/11/14 11:38:21;;;;;;;44.08;23.88;;;;;;;;;;5016776;28;20395;-78
2022/11/14 11:40:52;;;;;;;44.85;24.85;;;;;;;;;;5012679;28;20085;-78
2022/11/14 11:43:18;;;;;;;40.15;24.27;;;;;;;;;;5032959;28;20038;-77
2022/11/14 11:45:48;;;;;;;42.78;25.23;;;;;;;;;;5015727;28;20050;-77
2022/11/14 11:48:21;;;;;;;45.40;24.42;;;;;;;;;;5018619;28;20049;-78
2022/11/14 11:50:48;;;;;;;41.05;24.13;;;;;;;;;;5035401;28;20098;-78
2022/11/14 11:53:20;;;;;;;39.80;24.85;;;;;;;;;;5034924;28;20472;-78
2022/11/14 11:55:48;;;;;;;37.10;23.38;;;;;;;;;;5025888;28;20053;-78
2022/11/14 11:58:32;;;;;;;42.45;24.17;;;;;;;;;;5016416;28;20505;-78
2022/11/14 12:00:58;;;;;;;39.90;23.23;;;;;;;;;;4995375;28;20053;-77
2022/11/14 12:03:25;;;;;;;40.65;24.52;;;;;;;;;;5031138;28;20045;-77
2022/11/14 12:06:05;;;;;;;40.78;23.80;;;;;;;;;;5021927;28;20042;-77
2022/11/14 12:08:35;;;;;;;41.15;23.50;;;;;;;;;;4997394;28;20076;-77
2022/11/14 12:11:02;;;;;;;37.80;23.75;;;;;;;;;;5014986;28;20107;-77
2022/11/14 12:13:47;;;;;;;40.83;24.50;;;;;;;;;;4996832;28;20048;-77
2022/11/14 12:16:25;;;;;;;41.30;24.77;;;;;;;;;;5011991;28;20052;-77
2022/11/14 12:18:54;;;;;;;42.30;25.05;;;;;;;;;;4995610;28;20038;-77
2022/11/14 12:21:35;;;;;;;44.75;25.35;;;;;;;;;;4983208;28;20125;-77
2022/11/14 12:24:19;;;;;;;38.75;23.42;;;;;;;;;;5010215;28;20441;-77
2022/11/14 12:26:54;;;;;;;45.13;25.90;;;;;;;;;;5003433;28;20034;-77
2022/11/14 12:29:26;;;;;;;41.97;24.58;;;;;;;;;;5005771;28;20117;-77
2022/11/14 12:31:56;;;;;;;45.17;25.48;;;;;;;;;;5014566;28;20108;-77
2022/11/14 12:34:26;;;;;;;41.92;22.95;;;;;;;;;;5014915;28;20045;-77
2022/11/14 12:36:52;;;;;;;44.75;27.73;;;;;;;;;;5014409;28;20042;-77
2022/11/14 12:39:26;;;;;;;135.07;62.75;;;;;;;;;;5014412;28;20096;-77
2022/11/14 12:42:07;;;;;;;43.20;24.85;;;;;;;;;;5001181;28;20149;-77
2022/11/14 12:44:35;;;;;;;41.75;24.88;;;;;;;;;;5013323;28;20034;-77
2022/11/14 12:47:06;;;;;;;38.70;24.08;;;;;;;;;;5014403;28;20052;-77
2022/11/14 12:49:35;;;;;;;41.25;24.88;;;;;;;;;;5014236;28;20596;-77
2022/11/14 12:52:01;;;;;;;42.88;23.40;;;;;;;;;;5001183;28;20111;-77
2022/11/14 12:54:48;;;;;;;41.08;25.25;;;;;;;;;;5013299;28;20046;-77
2022/11/14 12:57:46;;;;;;;39.58;24.52;;;;;;;;;;4983932;28;20054;-77
2022/11/14 13:00:06;;;;;;;42.25;25.15;;;;;;;;;;5014228;28;20152;-78
2022/11/14 13:02:44;;;;;;;42.28;25.08;;;;;;;;;;5014148;28;20042;-78
2022/11/14 13:05:22;;;;;;;40.05;22.92;;;;;;;;;;5013938;28;20045;-78
2022/11/14 13:08:11;;;;;;;41.53;23.30;;;;;;;;;;5026348;28;20069;-77
2022/11/14 13:10:39;;;;;;;38.55;24.23;;;;;;;;;;5033535;28;20096;-77
2022/11/14 13:21:45;;;;;;;39.90;22.42;;;;;;;;;;5020903;28;20069;-77
2022/11/14 13:24:15;;;;;;;37.07;22.90;;;;;;;;;;5031924;28;20048;-77
2022/11/14 13:26:44;;;;;;;37.83;23.48;;;;;;;;;;5029685;28;20507;-77
2022/11/14 13:29:28;;;;;;;43.45;23.30;;;;;;;;;;5008940;28;20053;-77
2022/11/14 13:31:55;;;;;;;36.42;23.20;;;;;;;;;;5014393;28;20492;-78
2022/11/14 13:34:40;;;;;;;38.70;23.88;;;;;;;;;;5009421;28;20442;-78
2022/11/14 13:37:15;;;;;;;37.03;23.83;;;;;;;;;;5031578;28;20408;-78
2022/11/14 13:39:58;;;;;;;38.35;23.02;;;;;;;;;;5029887;28;20442;-78
2022/11/14 13:42:39;;;;;;;39.03;22.92;;;;;;;;;;4999879;28;20541;-78
2022/11/14 13:45:18;;;;;;;37.10;23.02;;;;;;;;;;5033440;28;20077;-78
2022/11/14 13:48:03;;;;;;;38.90;24.15;;;;;;;;;;5032802;28;20053;-78
2022/11/14 13:50:35;;;;;;;38.60;21.77;;;;;;;;;;5031360;28;20049;-78
2022/11/14 13:53:02;;;;;;;36.80;22.40;;;;;;;;;;5032845;28;20408;-78
2022/11/14 13:55:28;;;;;;;38.03;21.90;;;;;;;;;;5033128;28;20077;-78
2022/11/14 13:58:00;;;;;;;36.45;22.67;;;;;;;;;;5033330;28;20091;-78
2022/11/14 14:00:28;;;;;;;38.17;23.27;;;;;;;;;;5033268;28;20049;-78
2022/11/14 14:02:58;;;;;;;38.97;23.50;;;;;;;;;;5035340;28;20045;-78
2022/11/14 14:05:24;;;;;;;38.60;22.60;;;;;;;;;;5036606;28;20045;-78
2022/11/14 14:07:54;;;;;;;38.40;23.55;;;;;;;;;;5037174;28;20061;-78
2022/11/14 14:10:32;;;;;;;36.10;22.50;;;;;;;;;;5036586;28;21385;-78
2022/11/14 14:13:19;;;;;;;37.75;21.98;;;;;;;;;;5029049;28;20100;-78
2022/11/14 14:15:48;;;;;;;37.53;23.42;;;;;;;;;;5018519;28;20041;-78
2022/11/14 14:18:24;;;;;;;38.33;23.00;;;;;;;;;;5036828;28;20069;-78
2022/11/14 14:21:05;;;;;;;38.67;23.25;;;;;;;;;;5022246;28;20084;-78
2022/11/14 14:23:34;;;;;;;38.63;22.27;;;;;;;;;;5035578;28;20041;-78
2022/11/14 14:26:15;;;;;;;36.70;21.63;;;;;;;;;;5033785;28;20446;-78
2022/11/14 14:28:41;;;;;;;35.28;23.17;;;;;;;;;;5026755;28;20041;-79
2022/11/14 14:31:07;;;;;;;35.42;21.60;;;;;;;;;;5037608;28;20064;-81
2022/11/14 14:33:41;;;;;;;37.85;22.90;;;;;;;;;;5038455;28;20049;-78
2022/11/14 14:36:19;;;;;;;44.78;24.75;;;;;;;;;;5036622;28;20045;-77
2022/11/14 14:38:46;;;;;;;45.90;25.33;;;;;;;;;;5035446;28;20554;-77
2022/11/14 14:41:16;;;;;;;39.25;22.67;;;;;;;;;;5026841;28;20060;-78
2022/11/14 14:43:43;;;;;;;49.13;24.73;;;;;;;;;;5025949;28;20052;-77
2022/11/14 14:46:09;;;;;;;44.80;23.80;;;;;;;;;;5036612;28;20377;-77
2022/11/14 14:48:36;;;;;;;39.20;23.98;;;;;;;;;;5024440;28;20504;-77
2022/11/14 14:51:03;;;;;;;38.25;23.30;;;;;;;;;;5041161;28;20042;-76
2022/11/14 14:53:31;;;;;;;41.90;24.08;;;;;;;;;;5018625;28;20041;-77